Time;durP1;ratioP1;P1;durP2;ratioP2;P2;SDS_P1;SDS_P2;PMS_P1;PMS_P2;Temp;Humidity;BMP_temperature;BMP_pressure;BME280_temperature;BME280_humidity;BME280_pressure;Samples;Min_cycle;Max_cycle;Signal;HPM_P1;HPM_P2
2023/01/27 00:02:12;;;;;;;33.03;17.73;;;;;;;;;;5018474;28;20232;-71
2023/01/27 00:04:38;;;;;;;31.30;17.53;;;;;;;;;;5020694;28;20216;-71
2023/01/27 00:07:04;;;;;;;32.33;17.17;;;;;;;;;;5025398;28;20616;-70
2023/01/27 00:09:30;;;;;;;29.33;17.00;;;;;;;;;;5019580;28;20665;-70
2023/01/27 00:14:41;;;;;;;32.53;17.00;;;;;;;;;;5013928;28;20199;-70
2023/01/27 00:17:08;;;;;;;37.83;19.83;;;;;;;;;;5023328;28;20183;-71
2023/01/27 00:19:34;;;;;;;30.40;17.00;;;;;;;;;;5019839;28;20194;-71
2023/01/27 00:24:45;;;;;;;33.27;18.63;;;;;;;;;;5017067;28;20211;-71
2023/01/27 00:27:12;;;;;;;33.07;18.20;;;;;;;;;;5026292;28;20175;-70
2023/01/27 00:29:39;;;;;;;36.80;18.83;;;;;;;;;;5017671;28;20210;-71
2023/01/27 00:34:50;;;;;;;36.30;18.87;;;;;;;;;;5018200;28;20588;-71
2023/01/27 00:37:16;;;;;;;38.17;19.40;;;;;;;;;;5030751;28;20244;-71
2023/01/27 00:39:42;;;;;;;35.87;18.87;;;;;;;;;;5000047;28;20195;-71
2023/01/27 00:42:09;;;;;;;36.77;19.30;;;;;;;;;;5019628;28;20241;-71
2023/01/27 00:44:35;;;;;;;36.37;18.67;;;;;;;;;;5019494;28;20228;-70
2023/01/27 00:47:02;;;;;;;33.03;17.90;;;;;;;;;;5020509;28;20199;-70
2023/01/27 00:49:28;;;;;;;38.63;19.27;;;;;;;;;;5018743;28;20203;-70
2023/01/27 00:51:54;;;;;;;35.77;18.93;;;;;;;;;;5014803;28;20187;-70
2023/01/27 00:54:21;;;;;;;35.80;18.20;;;;;;;;;;5014193;28;20897;-71
2023/01/27 00:56:47;;;;;;;34.73;18.23;;;;;;;;;;5014997;28;20171;-71
2023/01/27 00:59:13;;;;;;;35.33;18.07;;;;;;;;;;5017868;28;20667;-70
2023/01/27 01:01:39;;;;;;;38.20;18.93;;;;;;;;;;5022685;28;20704;-70
2023/01/27 01:04:05;;;;;;;37.13;18.50;;;;;;;;;;5012587;28;20179;-71
2023/01/27 01:06:31;;;;;;;35.37;18.70;;;;;;;;;;5008159;28;20218;-70
2023/01/27 01:08:58;;;;;;;33.40;18.10;;;;;;;;;;5022070;28;20201;-71
2023/01/27 01:11:24;;;;;;;32.33;17.40;;;;;;;;;;5018791;28;20646;-71
2023/01/27 01:13:51;;;;;;;33.50;17.83;;;;;;;;;;5018563;28;20193;-70
2023/01/27 01:16:19;;;;;;;36.07;19.03;;;;;;;;;;4993654;28;20207;-70
2023/01/27 01:18:45;;;;;;;35.77;18.97;;;;;;;;;;5021689;28;20650;-70
2023/01/27 01:21:12;;;;;;;35.67;18.43;;;;;;;;;;5021858;28;20186;-70
2023/01/27 01:23:39;;;;;;;34.37;17.27;;;;;;;;;;5021092;28;20196;-70
2023/01/27 01:26:05;;;;;;;32.43;17.90;;;;;;;;;;5015530;28;20257;-70
2023/01/27 01:28:32;;;;;;;32.77;16.33;;;;;;;;;;5016780;28;20201;-70
2023/01/27 01:31:09;;;;;;;33.17;17.80;;;;;;;;;;5018005;28;20211;-70
2023/01/27 01:33:35;;;;;;;31.50;16.80;;;;;;;;;;5016049;28;20724;-70
2023/01/27 01:36:09;;;;;;;38.43;18.77;;;;;;;;;;5015887;28;20194;-70
2023/01/27 01:38:35;;;;;;;35.00;18.57;;;;;;;;;;5019864;28;20182;-70
2023/01/27 01:41:01;;;;;;;33.87;17.37;;;;;;;;;;5021622;28;20191;-70
2023/01/27 01:43:27;;;;;;;35.57;18.37;;;;;;;;;;5013505;28;20211;-70
2023/01/27 01:45:55;;;;;;;35.60;18.77;;;;;;;;;;5007909;28;20198;-70
2023/01/27 01:48:25;;;;;;;33.87;18.63;;;;;;;;;;5023075;28;20179;-71
2023/01/27 01:50:54;;;;;;;33.03;17.23;;;;;;;;;;5023292;28;20199;-71
2023/01/27 01:53:21;;;;;;;32.90;17.63;;;;;;;;;;5022948;28;20280;-70
2023/01/27 01:55:48;;;;;;;33.97;17.87;;;;;;;;;;5021894;28;20215;-70
2023/01/27 01:58:19;;;;;;;32.30;18.27;;;;;;;;;;5024734;28;20183;-70
2023/01/27 02:00:45;;;;;;;32.07;16.97;;;;;;;;;;5021207;28;20716;-70
2023/01/27 02:03:11;;;;;;;31.33;18.23;;;;;;;;;;5024823;28;20832;-70
2023/01/27 02:05:40;;;;;;;31.10;17.20;;;;;;;;;;5021169;28;20199;-70
2023/01/27 02:08:14;;;;;;;30.33;16.87;;;;;;;;;;5021706;28;20182;-70
2023/01/27 02:10:41;;;;;;;28.07;15.93;;;;;;;;;;5017204;28;20234;-71
2023/01/27 02:13:07;;;;;;;27.60;15.67;;;;;;;;;;5023056;28;20209;-71
2023/01/27 02:15:35;;;;;;;28.20;15.50;;;;;;;;;;5011179;28;20210;-71
2023/01/27 02:18:01;;;;;;;30.80;17.50;;;;;;;;;;5024818;28;20170;-71
2023/01/27 02:20:36;;;;;;;29.57;16.23;;;;;;;;;;5023154;28;20191;-71
2023/01/27 02:23:07;;;;;;;29.63;16.97;;;;;;;;;;5025443;28;20183;-70
2023/01/27 02:25:36;;;;;;;29.83;16.30;;;;;;;;;;5023307;28;20220;-71
2023/01/27 02:28:03;;;;;;;34.13;17.80;;;;;;;;;;5023273;28;20788;-70
2023/01/27 02:30:30;;;;;;;32.00;16.80;;;;;;;;;;5013384;28;20293;-70
2023/01/27 02:32:56;;;;;;;36.30;17.60;;;;;;;;;;5021039;28;20225;-71
2023/01/27 02:35:28;;;;;;;31.47;16.43;;;;;;;;;;5024712;28;20199;-70
2023/01/27 02:37:55;;;;;;;30.53;16.90;;;;;;;;;;5015069;28;20183;-71
2023/01/27 02:40:22;;;;;;;29.53;16.93;;;;;;;;;;5022197;28;20647;-71
2023/01/27 02:42:49;;;;;;;33.33;17.27;;;;;;;;;;5021156;28;20229;-70
2023/01/27 02:45:15;;;;;;;33.30;17.97;;;;;;;;;;5020911;28;20286;-70
2023/01/27 02:47:41;;;;;;;30.90;17.13;;;;;;;;;;5023295;28;20187;-70
2023/01/27 02:50:08;;;;;;;33.13;18.57;;;;;;;;;;5005466;28;20878;-71
2023/01/27 02:52:34;;;;;;;32.57;17.50;;;;;;;;;;5009915;28;20187;-71
2023/01/27 02:55:00;;;;;;;32.43;16.13;;;;;;;;;;5019999;28;20621;-70
2023/01/27 02:57:26;;;;;;;32.33;17.50;;;;;;;;;;5023152;28;20186;-70
2023/01/27 03:00:12;;;;;;;31.93;17.47;;;;;;;;;;5003671;28;20692;-71
2023/01/27 03:02:38;;;;;;;32.80;17.53;;;;;;;;;;5000708;28;20197;-71
2023/01/27 03:05:04;;;;;;;32.47;17.27;;;;;;;;;;5022176;28;20585;-71
2023/01/27 03:07:31;;;;;;;31.53;17.53;;;;;;;;;;5023828;28;20632;-70
2023/01/27 03:09:57;;;;;;;27.73;16.07;;;;;;;;;;5023267;28;20589;-71
2023/01/27 03:12:23;;;;;;;33.73;18.40;;;;;;;;;;5026098;28;20190;-71
2023/01/27 03:20:23;;;;;;;32.43;17.10;;;;;;;;;;5022151;28;20217;-71
2023/01/27 03:22:49;;;;;;;30.17;16.90;;;;;;;;;;5019762;28;20179;-73
2023/01/27 03:25:15;;;;;;;32.97;17.77;;;;;;;;;;5019213;28;20203;-71
2023/01/27 03:27:42;;;;;;;30.67;17.00;;;;;;;;;;5019754;28;20201;-70
2023/01/27 03:30:19;;;;;;;27.73;15.67;;;;;;;;;;5019927;28;20205;-71
2023/01/27 03:32:54;;;;;;;26.67;15.40;;;;;;;;;;5018655;28;20187;-70
2023/01/27 03:35:47;;;;;;;27.67;16.27;;;;;;;;;;5016948;28;20252;-71
2023/01/27 03:46:31;;;;;;;29.70;16.70;;;;;;;;;;5017972;28;20225;-70
2023/01/27 03:48:58;;;;;;;27.30;15.70;;;;;;;;;;5019740;28;20195;-70
2023/01/27 03:51:25;;;;;;;30.70;16.67;;;;;;;;;;5018833;28;20214;-71
2023/01/27 03:53:51;;;;;;;27.70;16.33;;;;;;;;;;5019592;28;20195;-70
2023/01/27 03:56:19;;;;;;;29.87;17.17;;;;;;;;;;5018680;28;20199;-71
2023/01/27 03:58:47;;;;;;;27.90;16.00;;;;;;;;;;5020585;28;20201;-71
2023/01/27 04:01:15;;;;;;;27.87;16.53;;;;;;;;;;5018145;28;20193;-71
2023/01/27 04:09:18;;;;;;;29.07;15.70;;;;;;;;;;5020789;28;20194;-71
2023/01/27 04:11:59;;;;;;;29.83;16.17;;;;;;;;;;5019454;28;20191;-70
2023/01/27 04:14:25;;;;;;;31.08;17.42;;;;;;;;;;5016604;28;20890;-71
2023/01/27 04:16:52;;;;;;;28.23;16.20;;;;;;;;;;5017936;28;20179;-71
2023/01/27 04:19:19;;;;;;;31.80;16.37;;;;;;;;;;5017532;28;20182;-70
2023/01/27 04:21:45;;;;;;;31.13;15.60;;;;;;;;;;5022139;28;20183;-71
2023/01/27 04:24:23;;;;;;;30.00;16.47;;;;;;;;;;5019965;28;20557;-70
2023/01/27 04:26:50;;;;;;;27.80;15.97;;;;;;;;;;5021174;28;20174;-71
2023/01/27 04:29:16;;;;;;;28.03;15.47;;;;;;;;;;5022999;28;20174;-70
2023/01/27 04:31:43;;;;;;;28.37;14.93;;;;;;;;;;5018544;28;20190;-70
2023/01/27 04:34:10;;;;;;;27.43;14.90;;;;;;;;;;5012633;28;20175;-71
2023/01/27 04:36:36;;;;;;;29.67;15.93;;;;;;;;;;5016230;28;20266;-71
2023/01/27 04:39:02;;;;;;;29.07;16.17;;;;;;;;;;5016313;28;20628;-71
2023/01/27 04:41:28;;;;;;;27.80;15.80;;;;;;;;;;5018106;28;20266;-71
2023/01/27 04:43:54;;;;;;;28.00;15.57;;;;;;;;;;5022322;28;20190;-70
2023/01/27 04:46:20;;;;;;;30.23;16.70;;;;;;;;;;5018174;28;20199;-71
2023/01/27 04:48:46;;;;;;;28.80;15.70;;;;;;;;;;5018599;28;20728;-70
2023/01/27 04:51:13;;;;;;;28.97;15.67;;;;;;;;;;5016399;28;20233;-71
2023/01/27 04:53:39;;;;;;;30.20;15.63;;;;;;;;;;5018787;28;20191;-70
2023/01/27 04:56:06;;;;;;;25.53;14.47;;;;;;;;;;5018300;28;20195;-70
2023/01/27 04:58:33;;;;;;;27.60;16.00;;;;;;;;;;5018018;28;20187;-70
2023/01/27 05:00:59;;;;;;;27.87;15.20;;;;;;;;;;5019392;28;20205;-71
2023/01/27 05:03:25;;;;;;;29.93;15.57;;;;;;;;;;5019056;28;20697;-70
2023/01/27 05:05:51;;;;;;;29.27;16.30;;;;;;;;;;5021507;28;20202;-71
2023/01/27 05:08:17;;;;;;;32.17;16.13;;;;;;;;;;5021826;28;20191;-70
2023/01/27 05:10:46;;;;;;;31.00;15.80;;;;;;;;;;5012707;28;20211;-71
2023/01/27 05:13:12;;;;;;;28.83;15.40;;;;;;;;;;5015704;28;20198;-70
2023/01/27 05:15:38;;;;;;;30.57;16.50;;;;;;;;;;5016689;28;20203;-71
2023/01/27 05:18:04;;;;;;;31.53;16.47;;;;;;;;;;5020059;28;20183;-71
2023/01/27 05:20:30;;;;;;;28.33;15.50;;;;;;;;;;5020005;28;20187;-71
2023/01/27 05:23:34;;;;;;;32.13;15.57;;;;;;;;;;5018993;28;20214;-71
2023/01/27 05:25:43;;;;;;;28.20;15.37;;;;;;;;;;5017161;28;20210;-70
2023/01/27 05:28:10;;;;;;;28.97;15.93;;;;;;;;;;5019004;28;20218;-71
2023/01/27 05:30:36;;;;;;;30.87;15.80;;;;;;;;;;5019637;28;20297;-71
2023/01/27 05:33:02;;;;;;;27.77;14.07;;;;;;;;;;5023551;28;20180;-71
2023/01/27 05:35:31;;;;;;;30.87;15.50;;;;;;;;;;5020427;28;20210;-71
2023/01/27 05:37:57;;;;;;;31.60;16.40;;;;;;;;;;5020199;28;20614;-71
2023/01/27 05:40:23;;;;;;;30.53;15.83;;;;;;;;;;5023052;28;20195;-71
2023/01/27 05:42:53;;;;;;;25.77;14.20;;;;;;;;;;5020685;28;20975;-71
2023/01/27 05:45:19;;;;;;;29.52;17.25;;;;;;;;;;5016733;28;20428;-70
2023/01/27 05:47:50;;;;;;;25.70;14.03;;;;;;;;;;5020726;28;20591;-71
2023/01/27 05:50:16;;;;;;;27.90;15.23;;;;;;;;;;5022657;28;20206;-71
2023/01/27 05:52:42;;;;;;;27.47;15.20;;;;;;;;;;5018962;28;20170;-70
2023/01/27 05:55:08;;;;;;;29.40;16.83;;;;;;;;;;5020471;28;20634;-71
2023/01/27 05:57:34;;;;;;;31.67;15.67;;;;;;;;;;5024201;28;20881;-71
2023/01/27 06:00:00;;;;;;;27.37;15.20;;;;;;;;;;5022222;28;20186;-71
2023/01/27 06:02:26;;;;;;;29.92;18.98;;;;;;;;;;5018863;28;20872;-71
2023/01/27 06:04:53;;;;;;;24.83;15.23;;;;;;;;;;5023253;28;20206;-71
2023/01/27 06:07:19;;;;;;;26.73;16.37;;;;;;;;;;5023967;28;20266;-71
2023/01/27 06:09:45;;;;;;;28.87;15.10;;;;;;;;;;5024411;28;20690;-71
2023/01/27 06:12:11;;;;;;;23.70;14.13;;;;;;;;;;5025055;28;20588;-71
2023/01/27 06:14:41;;;;;;;28.60;15.27;;;;;;;;;;5022344;28;20784;-71
2023/01/27 06:17:08;;;;;;;25.97;14.57;;;;;;;;;;5022404;28;20255;-71
2023/01/27 06:19:34;;;;;;;26.90;14.80;;;;;;;;;;5020544;28;20186;-70
2023/01/27 06:22:01;;;;;;;24.43;13.57;;;;;;;;;;5022499;28;20739;-70
2023/01/27 06:24:27;;;;;;;25.83;15.40;;;;;;;;;;5023674;28;20240;-73
2023/01/27 06:26:55;;;;;;;30.27;16.23;;;;;;;;;;5021895;28;20186;-71
2023/01/27 06:29:21;;;;;;;27.83;15.57;;;;;;;;;;5021619;28;20182;-71
2023/01/27 06:31:47;;;;;;;26.97;14.93;;;;;;;;;;5023887;28;20174;-70
2023/01/27 06:34:13;;;;;;;26.73;15.13;;;;;;;;;;5018991;28;20263;-71
2023/01/27 06:36:39;;;;;;;28.17;15.73;;;;;;;;;;5021120;28;20179;-71
2023/01/27 06:39:06;;;;;;;26.63;14.13;;;;;;;;;;5022227;28;20182;-71
2023/01/27 06:41:32;;;;;;;25.85;16.05;;;;;;;;;;5021460;28;20425;-71
2023/01/27 06:43:58;;;;;;;26.50;17.23;;;;;;;;;;5021082;28;20432;-71
2023/01/27 06:46:24;;;;;;;26.27;15.63;;;;;;;;;;5021825;28;20739;-74
2023/01/27 06:48:50;;;;;;;26.50;15.67;;;;;;;;;;5022140;28;20870;-75
2023/01/27 06:51:16;;;;;;;27.92;16.67;;;;;;;;;;5020243;28;20429;-73
2023/01/27 06:53:43;;;;;;;29.90;18.63;;;;;;;;;;5001654;28;20469;-74
2023/01/27 06:56:09;;;;;;;28.07;16.23;;;;;;;;;;5020444;28;20731;-75
2023/01/27 06:58:35;;;;;;;30.57;17.30;;;;;;;;;;5029945;28;20825;-80
2023/01/27 07:01:03;;;;;;;27.93;15.80;;;;;;;;;;5026091;28;20182;-78
2023/01/27 07:03:29;;;;;;;26.35;16.90;;;;;;;;;;5027971;28;20904;-74
2023/01/27 07:05:55;;;;;;;25.70;17.08;;;;;;;;;;5020405;28;20933;-75
2023/01/27 07:08:22;;;;;;;26.00;14.50;;;;;;;;;;5028324;28;20185;-74
2023/01/27 07:10:48;;;;;;;22.63;13.37;;;;;;;;;;5017547;28;20210;-76
2023/01/27 07:13:15;;;;;;;25.07;14.43;;;;;;;;;;5023377;28;20184;-76
2023/01/27 07:15:41;;;;;;;23.83;14.00;;;;;;;;;;5025494;28;20206;-79
2023/01/27 07:18:07;;;;;;;23.90;12.70;;;;;;;;;;5003288;28;20187;-82
2023/01/27 07:20:33;;;;;;;22.90;13.10;;;;;;;;;;5017856;28;20178;-80
2023/01/27 07:23:01;;;;;;;23.30;13.40;;;;;;;;;;5022649;28;20522;-78
2023/01/27 07:25:28;;;;;;;24.83;13.60;;;;;;;;;;5020164;28;20229;-78
2023/01/27 07:27:56;;;;;;;24.17;13.40;;;;;;;;;;5026290;28;20205;-78
2023/01/27 07:30:22;;;;;;;26.50;13.50;;;;;;;;;;5024150;28;20248;-78
2023/01/27 07:32:49;;;;;;;24.43;13.73;;;;;;;;;;5009127;28;20178;-78
2023/01/27 07:35:16;;;;;;;25.40;14.00;;;;;;;;;;5022181;28;20210;-78
2023/01/27 07:37:43;;;;;;;27.80;13.83;;;;;;;;;;5020266;28;20203;-78
2023/01/27 07:40:12;;;;;;;25.80;14.70;;;;;;;;;;5022298;28;20217;-80
2023/01/27 07:42:39;;;;;;;24.53;13.47;;;;;;;;;;5022792;28;20176;-84
2023/01/27 07:45:05;;;;;;;25.17;13.63;;;;;;;;;;5022312;28;20579;-77
2023/01/27 07:47:31;;;;;;;25.80;13.77;;;;;;;;;;5031718;28;20317;-79
2023/01/27 07:49:57;;;;;;;24.07;14.20;;;;;;;;;;5025272;28;20225;-78
2023/01/27 07:52:24;;;;;;;21.87;13.27;;;;;;;;;;5024971;28;20278;-76
2023/01/27 07:54:50;;;;;;;24.10;13.63;;;;;;;;;;5022403;28;20289;-75
2023/01/27 07:57:16;;;;;;;22.10;11.77;;;;;;;;;;5020363;28;20186;-76
2023/01/27 07:59:42;;;;;;;20.17;11.63;;;;;;;;;;5027039;28;20194;-75
2023/01/27 08:02:09;;;;;;;18.73;11.37;;;;;;;;;;5025067;28;20308;-74
2023/01/27 08:04:36;;;;;;;21.33;12.80;;;;;;;;;;5019022;28;20223;-72
2023/01/27 08:07:02;;;;;;;22.73;12.60;;;;;;;;;;5022916;28;20179;-72
2023/01/27 08:09:28;;;;;;;19.43;11.87;;;;;;;;;;5022274;28;20180;-72
2023/01/27 08:11:54;;;;;;;21.50;13.07;;;;;;;;;;5025356;28;20190;-73
2023/01/27 08:14:20;;;;;;;19.23;11.60;;;;;;;;;;5024276;28;20218;-72
2023/01/27 08:16:46;;;;;;;20.43;12.03;;;;;;;;;;5024093;28;20179;-73
2023/01/27 08:19:12;;;;;;;20.83;12.57;;;;;;;;;;5024641;28;20266;-72
2023/01/27 08:21:39;;;;;;;21.30;12.17;;;;;;;;;;5024562;28;20672;-72
2023/01/27 08:24:05;;;;;;;21.03;12.37;;;;;;;;;;5021329;28;20178;-72
2023/01/27 08:26:31;;;;;;;19.30;12.50;;;;;;;;;;5018020;28;20187;-71
2023/01/27 08:28:57;;;;;;;17.20;10.63;;;;;;;;;;5022940;28;20193;-71
2023/01/27 08:31:24;;;;;;;18.40;11.97;;;;;;;;;;5020820;28;20213;-72
2023/01/27 08:33:51;;;;;;;21.10;12.83;;;;;;;;;;5008178;28;20202;-74
2023/01/27 08:36:18;;;;;;;21.70;12.73;;;;;;;;;;5016007;28;20206;-73
2023/01/27 08:38:45;;;;;;;19.73;11.70;;;;;;;;;;5025762;28;20174;-74
2023/01/27 08:41:15;;;;;;;21.57;13.00;;;;;;;;;;5023538;28;20191;-71
2023/01/27 08:43:41;;;;;;;20.80;12.43;;;;;;;;;;5023963;28;20273;-72
2023/01/27 08:46:08;;;;;;;20.33;12.33;;;;;;;;;;5018955;28;20281;-72
2023/01/27 08:48:35;;;;;;;18.43;11.03;;;;;;;;;;5016657;28;20233;-72
2023/01/27 08:51:02;;;;;;;16.00;10.30;;;;;;;;;;5026427;28;20214;-72
2023/01/27 08:53:28;;;;;;;15.90;10.50;;;;;;;;;;5022478;28;20665;-72
2023/01/27 08:55:58;;;;;;;16.83;10.50;;;;;;;;;;5026339;28;20306;-71
2023/01/27 08:58:25;;;;;;;16.30;10.43;;;;;;;;;;5019959;28;20179;-71
2023/01/27 09:00:51;;;;;;;18.10;10.40;;;;;;;;;;5017831;28;20190;-71
2023/01/27 09:03:17;;;;;;;15.77;9.80;;;;;;;;;;5022737;28;20228;-71
2023/01/27 09:05:43;;;;;;;18.77;10.83;;;;;;;;;;5017501;28;20218;-71
2023/01/27 09:08:10;;;;;;;16.57;10.27;;;;;;;;;;5023928;28;20186;-71
2023/01/27 09:10:37;;;;;;;15.10;9.73;;;;;;;;;;5025098;28;20233;-72
2023/01/27 09:13:04;;;;;;;15.77;9.90;;;;;;;;;;5021544;28;20170;-71
2023/01/27 09:15:31;;;;;;;15.43;10.40;;;;;;;;;;5023067;28;20217;-71
2023/01/27 09:17:57;;;;;;;16.20;10.20;;;;;;;;;;5021514;28;20269;-72
2023/01/27 09:20:23;;;;;;;16.27;10.03;;;;;;;;;;5022129;28;20202;-72
2023/01/27 09:22:49;;;;;;;17.43;10.37;;;;;;;;;;5022115;28;20277;-72
2023/01/27 09:25:17;;;;;;;16.17;9.83;;;;;;;;;;5020281;28;20202;-72
2023/01/27 09:27:43;;;;;;;17.10;10.70;;;;;;;;;;5019381;28;20547;-72
2023/01/27 09:30:11;;;;;;;14.90;9.40;;;;;;;;;;5013924;28;20194;-72
2023/01/27 09:32:37;;;;;;;16.30;9.93;;;;;;;;;;5024692;28;20258;-73
2023/01/27 09:35:04;;;;;;;16.80;10.43;;;;;;;;;;5016490;28;20202;-72
2023/01/27 09:37:32;;;;;;;15.37;10.10;;;;;;;;;;5018573;28;20393;-72
2023/01/27 09:40:02;;;;;;;16.83;10.00;;;;;;;;;;4996299;28;20241;-72
2023/01/27 09:42:48;;;;;;;13.10;8.93;;;;;;;;;;5018654;28;20585;-72
2023/01/27 09:45:23;;;;;;;16.03;9.50;;;;;;;;;;5004252;28;20284;-72
2023/01/27 09:47:59;;;;;;;15.13;9.17;;;;;;;;;;5017597;28;20196;-72
2023/01/27 09:50:35;;;;;;;17.63;10.10;;;;;;;;;;5019643;28;20205;-72
2023/01/27 09:53:04;;;;;;;16.07;9.33;;;;;;;;;;5017880;28;20182;-72
2023/01/27 09:55:31;;;;;;;12.13;8.53;;;;;;;;;;5010496;28;20608;-73
2023/01/27 09:57:57;;;;;;;16.30;9.17;;;;;;;;;;5018331;28;20179;-74
2023/01/27 10:00:42;;;;;;;15.00;9.10;;;;;;;;;;5016196;28;20871;-72
2023/01/27 10:03:14;;;;;;;12.97;8.63;;;;;;;;;;5016752;28;20281;-72
2023/01/27 10:05:56;;;;;;;10.97;7.83;;;;;;;;;;5013153;28;20211;-73
2023/01/27 10:08:23;;;;;;;14.10;8.07;;;;;;;;;;5014228;28;20182;-72
2023/01/27 10:11:01;;;;;;;12.67;8.00;;;;;;;;;;5015812;28;20664;-72
2023/01/27 10:13:36;;;;;;;14.07;7.50;;;;;;;;;;5017316;28;20217;-72
2023/01/27 10:16:09;;;;;;;13.20;7.60;;;;;;;;;;5016502;28;20302;-72
2023/01/27 10:18:42;;;;;;;10.93;7.53;;;;;;;;;;5038329;28;20181;-72
2023/01/27 10:21:13;;;;;;;11.77;7.50;;;;;;;;;;5019117;28;20192;-73
2023/01/27 10:23:50;;;;;;;10.33;7.40;;;;;;;;;;5023487;28;20187;-72
2023/01/27 10:26:27;;;;;;;10.17;7.10;;;;;;;;;;5018416;28;20768;-72
2023/01/27 10:28:59;;;;;;;11.87;8.00;;;;;;;;;;5021976;28;20190;-72
2023/01/27 10:31:28;;;;;;;12.20;7.40;;;;;;;;;;5020522;28;20211;-72
2023/01/27 10:33:57;;;;;;;10.90;7.47;;;;;;;;;;5021684;28;20295;-72
2023/01/27 10:36:34;;;;;;;10.80;7.00;;;;;;;;;;5018935;28;20288;-72
2023/01/27 10:39:04;;;;;;;10.33;6.93;;;;;;;;;;5024106;28;20204;-77
2023/01/27 10:41:40;;;;;;;10.13;6.90;;;;;;;;;;5021635;28;20198;-72
2023/01/27 10:44:16;;;;;;;11.07;7.00;;;;;;;;;;5022553;28;20565;-72
2023/01/27 10:46:54;;;;;;;10.27;6.50;;;;;;;;;;5021082;28;20917;-73
2023/01/27 10:49:23;;;;;;;11.53;7.00;;;;;;;;;;5018873;28;20293;-73
2023/01/27 10:51:52;;;;;;;9.27;6.63;;;;;;;;;;5021788;28;20183;-72
2023/01/27 10:54:23;;;;;;;9.23;6.53;;;;;;;;;;5023479;28;20726;-74
2023/01/27 10:57:00;;;;;;;8.43;6.07;;;;;;;;;;5025511;28;20186;-73
2023/01/27 10:59:46;;;;;;;9.07;6.43;;;;;;;;;;5019153;28;21233;-73
2023/01/27 11:02:27;;;;;;;9.90;6.53;;;;;;;;;;5022805;28;20286;-76
2023/01/27 11:04:57;;;;;;;9.03;5.60;;;;;;;;;;5019203;28;20828;-76
2023/01/27 11:07:24;;;;;;;8.50;5.50;;;;;;;;;;5020635;28;20191;-80
2023/01/27 11:09:58;;;;;;;8.97;5.80;;;;;;;;;;5019236;28;20215;-76
2023/01/27 11:12:32;;;;;;;7.30;5.03;;;;;;;;;;5022566;28;20183;-78
2023/01/27 11:14:58;;;;;;;9.47;5.97;;;;;;;;;;5020830;28;20296;-74
2023/01/27 11:17:28;;;;;;;6.20;4.60;;;;;;;;;;5018771;28;20204;-76
2023/01/27 11:19:58;;;;;;;8.10;5.53;;;;;;;;;;5016584;28;20179;-74
2023/01/27 11:22:33;;;;;;;5.83;4.40;;;;;;;;;;5019819;28;20210;-74
2023/01/27 11:25:05;;;;;;;6.30;4.40;;;;;;;;;;5017711;28;20344;-75
2023/01/27 11:27:39;;;;;;;7.23;4.83;;;;;;;;;;5018395;28;20652;-75
2023/01/27 11:30:34;;;;;;;6.20;4.20;;;;;;;;;;5020177;28;20337;-74
2023/01/27 11:33:05;;;;;;;6.53;4.60;;;;;;;;;;5010338;28;20605;-74
2023/01/27 11:35:31;;;;;;;5.87;4.10;;;;;;;;;;5017253;28;20835;-74
2023/01/27 11:37:57;;;;;;;6.77;3.97;;;;;;;;;;5019481;28;20190;-74
2023/01/27 11:40:23;;;;;;;5.17;3.90;;;;;;;;;;5016271;28;20277;-74
2023/01/27 11:42:50;;;;;;;5.87;3.60;;;;;;;;;;5019526;28;20718;-74
2023/01/27 11:45:18;;;;;;;4.43;3.53;;;;;;;;;;5016016;28;20210;-74
2023/01/27 11:47:45;;;;;;;5.23;3.70;;;;;;;;;;5013522;28;20187;-75
2023/01/27 11:50:19;;;;;;;5.57;4.00;;;;;;;;;;5013235;28;20211;-76
2023/01/27 11:52:48;;;;;;;4.73;3.60;;;;;;;;;;5019243;28;20182;-75
2023/01/27 11:55:14;;;;;;;5.10;3.53;;;;;;;;;;5014652;28;20293;-76
2023/01/27 11:57:42;;;;;;;6.80;4.00;;;;;;;;;;5012905;28;20217;-73
2023/01/27 12:00:17;;;;;;;5.30;3.60;;;;;;;;;;5019095;28;20176;-77
2023/01/27 12:02:48;;;;;;;4.80;3.70;;;;;;;;;;5013833;28;20190;-75
2023/01/27 12:05:20;;;;;;;6.40;4.30;;;;;;;;;;5016905;28;20206;-74
2023/01/27 12:07:57;;;;;;;5.87;3.87;;;;;;;;;;5017642;28;20697;-75
2023/01/27 12:10:31;;;;;;;6.17;4.07;;;;;;;;;;5015461;28;20257;-75
2023/01/27 12:13:00;;;;;;;5.00;3.60;;;;;;;;;;5019262;28;20236;-75
2023/01/27 12:15:28;;;;;;;4.87;3.53;;;;;;;;;;5019540;28;20264;-75
2023/01/27 12:18:00;;;;;;;5.30;4.00;;;;;;;;;;5014042;28;20203;-75
2023/01/27 12:20:31;;;;;;;6.03;3.97;;;;;;;;;;5019867;28;20729;-74
2023/01/27 12:23:03;;;;;;;5.30;3.80;;;;;;;;;;4999928;28;20195;-75
2023/01/27 12:25:41;;;;;;;6.57;3.50;;;;;;;;;;5017276;28;20213;-74
2023/01/27 12:28:16;;;;;;;5.03;3.57;;;;;;;;;;5000926;28;20194;-74
2023/01/27 12:30:46;;;;;;;5.57;4.10;;;;;;;;;;5016618;28;20211;-75
2023/01/27 12:33:17;;;;;;;5.20;3.73;;;;;;;;;;5014467;28;20221;-75
2023/01/27 12:35:47;;;;;;;44.30;23.40;;;;;;;;;;5014791;28;20213;-75
2023/01/27 12:38:24;;;;;;;11.30;6.90;;;;;;;;;;5018301;28;20218;-75
2023/01/27 12:40:57;;;;;;;7.50;4.90;;;;;;;;;;5013562;28;20194;-74
2023/01/27 12:43:23;;;;;;;5.97;4.10;;;;;;;;;;5018185;28;20756;-75
2023/01/27 12:46:03;;;;;;;5.47;3.70;;;;;;;;;;5017313;28;20214;-75
2023/01/27 12:48:32;;;;;;;5.93;4.20;;;;;;;;;;5015808;28;20839;-75
2023/01/27 12:51:25;;;;;;;5.47;3.87;;;;;;;;;;5015849;28;20233;-75
2023/01/27 12:54:11;;;;;;;4.73;3.60;;;;;;;;;;4994341;28;20676;-75
2023/01/27 12:56:37;;;;;;;6.43;3.77;;;;;;;;;;5021192;28;20191;-75
2023/01/27 12:59:04;;;;;;;5.10;3.73;;;;;;;;;;5018518;28;20266;-75
2023/01/27 13:01:39;;;;;;;5.40;4.03;;;;;;;;;;5013856;28;20233;-75
2023/01/27 13:04:17;;;;;;;4.97;3.83;;;;;;;;;;5015655;28;20197;-75
2023/01/27 13:06:51;;;;;;;5.63;3.93;;;;;;;;;;5016857;28;20235;-75
2023/01/27 13:09:30;;;;;;;5.53;3.90;;;;;;;;;;5014320;28;20195;-75
2023/01/27 13:11:57;;;;;;;4.23;3.40;;;;;;;;;;5015693;28;20643;-75
2023/01/27 13:14:27;;;;;;;4.77;3.57;;;;;;;;;;5012206;28;20209;-75
2023/01/27 13:16:54;;;;;;;4.57;3.50;;;;;;;;;;5016555;28;20186;-75
2023/01/27 13:19:22;;;;;;;5.50;3.93;;;;;;;;;;5013033;28;20187;-75
2023/01/27 13:21:50;;;;;;;4.20;3.20;;;;;;;;;;5015652;28;20534;-74
2023/01/27 13:24:27;;;;;;;4.80;3.70;;;;;;;;;;5014386;28;20189;-75
2023/01/27 13:26:54;;;;;;;4.10;3.00;;;;;;;;;;5014716;28;20205;-75
2023/01/27 13:29:25;;;;;;;3.97;3.17;;;;;;;;;;5016980;28;20434;-75
2023/01/27 13:32:11;;;;;;;4.63;3.23;;;;;;;;;;5013491;28;20209;-75
2023/01/27 13:34:44;;;;;;;4.67;3.67;;;;;;;;;;5014032;28;20293;-74
2023/01/27 13:37:28;;;;;;;4.60;3.53;;;;;;;;;;5013675;28;20190;-74
2023/01/27 13:40:03;;;;;;;4.07;3.23;;;;;;;;;;5011840;28;20568;-75
2023/01/27 13:42:42;;;;;;;4.33;3.47;;;;;;;;;;5012919;28;20279;-75
2023/01/27 13:45:16;;;;;;;4.03;3.10;;;;;;;;;;5013144;28;20210;-74
2023/01/27 13:48:00;;;;;;;3.60;2.97;;;;;;;;;;5016068;28;20690;-74
2023/01/27 13:50:30;;;;;;;4.43;3.27;;;;;;;;;;5016524;28;20690;-75
2023/01/27 13:52:57;;;;;;;3.93;3.10;;;;;;;;;;5016649;28;20207;-75
2023/01/27 13:55:45;;;;;;;3.50;2.80;;;;;;;;;;5014909;28;20221;-75
2023/01/27 13:58:41;;;;;;;4.27;2.97;;;;;;;;;;5019217;28;20191;-75
2023/01/27 14:01:13;;;;;;;4.27;3.07;;;;;;;;;;4954692;28;21316;-75
2023/01/27 14:03:58;;;;;;;3.90;3.00;;;;;;;;;;5021319;28;20203;-75
2023/01/27 14:06:31;;;;;;;4.57;3.43;;;;;;;;;;5017341;28;20218;-75
2023/01/27 14:09:06;;;;;;;3.90;3.20;;;;;;;;;;5014921;28;20261;-75
2023/01/27 14:11:42;;;;;;;3.93;3.27;;;;;;;;;;5013368;28;20733;-76
2023/01/27 14:14:21;;;;;;;6.37;3.53;;;;;;;;;;5019146;28;20216;-75
2023/01/27 14:17:06;;;;;;;6.30;3.30;;;;;;;;;;5019222;28;20191;-75
2023/01/27 14:19:51;;;;;;;3.47;2.73;;;;;;;;;;5016995;28;20272;-75
2023/01/27 14:22:38;;;;;;;3.30;2.83;;;;;;;;;;5013560;28;20194;-74
2023/01/27 14:25:04;;;;;;;4.40;3.30;;;;;;;;;;5014847;28;20301;-75
2023/01/27 14:27:42;;;;;;;5.13;3.60;;;;;;;;;;5016694;28;20222;-75
2023/01/27 14:30:21;;;;;;;3.80;3.10;;;;;;;;;;5016830;28;20235;-75
2023/01/27 14:32:52;;;;;;;4.07;3.23;;;;;;;;;;5018469;28;20706;-75
2023/01/27 14:35:29;;;;;;;3.90;3.03;;;;;;;;;;5013406;28;20204;-75
2023/01/27 14:38:05;;;;;;;4.67;3.43;;;;;;;;;;5016793;28;20187;-75
2023/01/27 14:40:37;;;;;;;4.23;3.30;;;;;;;;;;5016870;28;20662;-75
2023/01/27 14:43:20;;;;;;;3.47;2.93;;;;;;;;;;5013458;28;20194;-74
2023/01/27 14:45:53;;;;;;;4.43;3.23;;;;;;;;;;5017710;28;20783;-75
2023/01/27 14:48:22;;;;;;;3.97;2.90;;;;;;;;;;5019521;28;20187;-75
2023/01/27 14:50:58;;;;;;;4.13;3.30;;;;;;;;;;5014361;28;20473;-74
2023/01/27 14:53:43;;;;;;;5.47;3.23;;;;;;;;;;5013568;28;21421;-75
2023/01/27 14:56:21;;;;;;;5.63;3.80;;;;;;;;;;5017186;28;20210;-75
2023/01/27 14:58:53;;;;;;;7.10;3.50;;;;;;;;;;5017230;28;20202;-75
2023/01/27 15:01:41;;;;;;;4.60;4.00;;;;;;;;;;5040155;28;21518;-77
2023/01/27 15:04:21;;;;;;;5.57;4.00;;;;;;;;;;5018337;28;20236;-76
2023/01/27 15:07:07;;;;;;;4.73;3.77;;;;;;;;;;5015583;28;20240;-74
2023/01/27 15:09:52;;;;;;;5.00;3.80;;;;;;;;;;5017594;28;20190;-75